FLIGHT INFORMATION
United Airlines

UAL172

At Arrival Gate

KMEM
 KBWI
DATE: 2020-01-02
GATE:  -
GATE DEPARTURE: 17:30
TAKEOFF: 17:38
DATE: 2020-01-03
GATE:  -
LANDING: 19:28
GATE ARRIVAL: 19:36
FLIGHT DATA
Crew: JHAN JENSEN
Speed: 468 kts Altitude: 37000 ft
Stage Length: 683 nm
Route: 
Block Time: 2.1 Flight Time: 1.8
Fuel Used: 11499 LB
TRACK DATA
50000 FT1000 KTAltitudeSpeed
AIRCRAFT INFORMATION
Aircraft Type: B739ERBW
Registration: N37419
SELCAL:  MSN/LN: 31666 / 2553
Operator: UNITED AIRLINES
Flights: 10 Block Time: 32 Flight Time: 28.8
Fuel Used: 192577 LB
  • DEPARTURE INFORMATION
    Date: 2020-01-02
    Airport: KMEM
    Gate:  -
    Gate Departure: 17:30
    Takeoff: 17:38
    ARRIVAL INFORMATION
    Date: 2020-01-03
    Airport: KBWI
    Gate:  -
    Landing: 19:28
    Gate Arrival: 19:36
  • FLIGHT DATA
    Crew: JHAN JENSEN
    Speed: 468 kts Altitude: 37000 ft
    Stage Length: 369 nm
    Route: 
    Block Time: 2.1 Flight Time: 1.8
    Fuel Used: 11499 LB
  • AIRCRAFT INFORMATION
    Aircraft Type: B739ERBW
    Registration: N37419
    SELCAL:  MSN/LN: 31666 / 2553
    Operator: United Airlines
    Flights: 10 Block Time: 32 Flight Time: 28.8
    Fuel Used: 192577 LB

DATALINK LOG | Newest first | Current as of: 2020-06-02 04:11:24
LABEL ID SEQUENCE CONTENT Dn/Up
2U5653KBWI 021854Z 15004KT 10SM FEW110 SCT160 BKN250 11/M01 A2991 RMK AO2 SLP130 T01061006▲ Up
2U5653KMEM 021854Z 08007KT 2SM R36L/6000VP6000FT -RA BR SCT004 BKN014 OVC070 12/12 A2970 RMK AO2 SFC VIS 4 PRESFR SLP055 P0027 T01220122 $▲ Up
2S4223KMEM KBWI▼ Dn
5U5653KMEM 021738Z 0218/0324 16007KT 5SM -RA BR OVC008 TEMPO 0218/0219 3SM BR OVC004 FM030200 14005KT 4SM -RA BR OVC004 FM030600 20005KT 3SM -RA BR OVC004 FM031600 23007KT 5SM BR VCSH OVC007▲ Up
5U5653KBWI 021749Z 0218/0324 22006KT P6SM SCT150 BKN250 FM030300 21005KT P6SM OVC070 FM030600 22005KT 5SM -RA BR OVC020 FM030900 23004KT 2SM -RA BR OVC008 FM031300 21006KT 4SM -RA BR OVC020 FM031500 22006KT P6SM OVC035▲ Up
5S4214KMEM KBWI▼ Dn
A35652CLEARED TO KBWI VIA KMEM KBWI UA172 N37419 . SQUAWK 0740.▲ Up
B34116KMEM KBWI UA172 N37419 ▼ Dn
A35601CLEARED TO KBWI VIA KMEM KBWI UA172 N37419 . SQUAWK 3012.▲ Up
B34116KMEM KBWI UA172 N37419 ▼ Dn
Q03831[LINK ACK]▲ Up
Q03043[LINK TEST]▼ Dn


AIRCRAFT HISTORY
FLIGHT DATE FLIGHT NUMBER ORIGIN DESTINATION ROUTE BLOCK TIME FLIGHT TIME FUEL USED (LB) PILOT
2020-04-06UAL2396KSFO KIAH 3.63.220380Dan Downs
2020-02-22UAL1973KIAH KSFO 4.13.823607Pete Locascio
2020-02-09UAL519KIAD KIAH 3.12.819301Steven Perry
2020-01-20UAL172KBWI KIAD 0.40.22135Michael Roth
2020-01-02UAL172KMEM KBWI 2.11.811499Jhan Jensen
2019-11-23UAL519KIAH KMEM 1.317578Steven Perry
2019-11-16UAL1116KSFO KIAH 3.53.221910Matthew Gales
2019-11-15UAL650PHNL KSFO 5.24.730935Kyle Rodgers
2019-11-13UAL1670KSFO PHNL 5.95.233864Kyle Rodgers
2019-11-12UAL9812KMCI KSFO 3.83.321369Kyle Rodgers